Mandarin River — 9V7657 — position and weather

sailwx.info

Track history (hours):
 
Tides and Currents Weather Stations Pressure Air Temp Water Temp Dewpoint Dewpoint Depression Visibility Wind Speed Wind Dir Waves Ship Positions

Mandarin River

Last reported at 2017-Dec-11 13:39 UTC. Time now 2018-Jan-21 12:43 UTC.
Position N 35°29' W 006°52'.
Warning: this ship's position is 40 days out of date.

Length 190 m; draft 10.2 m.

Type: Cargo ship. MMSI: 566237000.

Date/timePositionNaut miles runAvg speedWind from/ knotsBaromVisibWave heightAir tempDewpointWater temp
2017-Dec-11 13:39N 35°29' W 006°52'1 9.5
2017-Dec-11 13:30N 35°30' W 006°51'5 9.9
2017-Dec-11 13:00N 35°34' W 006°47'5 9.4
2017-Dec-11 12:30N 35°37' W 006°43'4 8.9
2017-Dec-11 12:00N 35°40' W 006°39'4 8.0
2017-Dec-11 11:30N 35°43' W 006°36'4 7.6
2017-Dec-11 11:00N 35°46' W 006°32'4 7.2
2017-Dec-11 10:30N 35°48' W 006°29'3 6.6
2017-Dec-11 10:00N 35°50' W 006°26'4 7.4
2017-Dec-11 09:30N 35°53' W 006°23'  
2017-Dec-07 17:36N 36°18' E 013°51'112.8
2017-Dec-07 17:29N 36°18' E 013°53'613.0
2017-Dec-07 17:00N 36°15' E 013°60'712.7
2017-Dec-07 16:29N 36°12' E 014°07'612.6
2017-Dec-07 16:00N 36°09' E 014°14'712.7
2017-Dec-07 15:30N 36°06' E 014°21'612.4
2017-Dec-07 15:00N 36°03' E 014°27'612.7
2017-Dec-07 14:31N 35°59' E 014°34'612.5
2017-Dec-07 14:00N 35°56' E 014°40'610.9
2017-Dec-07 13:29N 35°53' E 014°46'1 0.5
2017-Dec-07 12:04N 35°52' E 014°46'0 0.0
2017-Dec-07 11:55N 35°52' E 014°46'0 0.0
2017-Dec-07 11:13N 35°52' E 014°46'0 0.0
2017-Dec-07 10:13N 35°52' E 014°46'0 0.0
2017-Dec-07 09:55N 35°52' E 014°46'0 0.0
2017-Dec-07 09:22N 35°52' E 014°46'0 0.0
2017-Dec-07 08:49N 35°52' E 014°46'0 0.0
2017-Dec-07 08:19N 35°52' E 014°46'0 0.0
2017-Dec-07 07:43N 35°52' E 014°46'0 0.0
2017-Dec-07 07:25N 35°52' E 014°46'0 0.0
2017-Dec-07 06:37N 35°52' E 014°46'0 0.0
2017-Dec-07 06:19N 35°52' E 014°46'0 0.0
2017-Dec-07 05:55N 35°52' E 014°46'0 0.0
2017-Dec-07 05:28N 35°52' E 014°46'0 0.0
2017-Dec-07 04:58N 35°52' E 014°46'0 0.0
2017-Dec-07 04:19N 35°52' E 014°46'0 0.0
2017-Dec-07 03:50N 35°52' E 014°46'0 0.0
2017-Dec-07 03:28N 35°52' E 014°46'0 0.0
2017-Dec-07 02:55N 35°52' E 014°46'0 0.1
2017-Dec-07 02:28N 35°52' E 014°46'0 0.3
2017-Dec-07 02:00N 35°52' E 014°46'1 2.6
2017-Dec-07 01:30N 35°51' E 014°48'4 8.8
2017-Dec-07 01:00N 35°50' E 014°53'  
Track history (hours):
 
Tides and Currents Weather Stations Pressure Air Temp Water Temp Dewpoint Dewpoint Depression Visibility Wind Speed Wind Dir Waves Ship Positions

Mandarin River

Last reported at 2017-Dec-11 13:39 UTC. Time now 2018-Jan-21 12:43 UTC.
Position N 35°29' W 006°52'.
Warning: this ship's position is 40 days out of date.

Length 190 m; draft 10.2 m.

Type: Cargo ship. MMSI: 566237000.

Date/timePositionNaut miles runAvg speedWind from/ knotsBaromVisibWave heightAir tempDewpointWater temp
2017-Dec-11 13:39N 35°29' W 006°52'1 9.5
2017-Dec-11 13:30N 35°30' W 006°51'5 9.9
2017-Dec-11 13:00N 35°34' W 006°47'5 9.4
2017-Dec-11 12:30N 35°37' W 006°43'4 8.9
2017-Dec-11 12:00N 35°40' W 006°39'4 8.0
2017-Dec-11 11:30N 35°43' W 006°36'4 7.6
2017-Dec-11 11:00N 35°46' W 006°32'4 7.2
2017-Dec-11 10:30N 35°48' W 006°29'3 6.6
2017-Dec-11 10:00N 35°50' W 006°26'4 7.4
2017-Dec-11 09:30N 35°53' W 006°23'  
2017-Dec-07 17:36N 36°18' E 013°51'112.8
2017-Dec-07 17:29N 36°18' E 013°53'613.0
2017-Dec-07 17:00N 36°15' E 013°60'712.7
2017-Dec-07 16:29N 36°12' E 014°07'612.6
2017-Dec-07 16:00N 36°09' E 014°14'712.7
2017-Dec-07 15:30N 36°06' E 014°21'612.4
2017-Dec-07 15:00N 36°03' E 014°27'612.7
2017-Dec-07 14:31N 35°59' E 014°34'612.5
2017-Dec-07 14:00N 35°56' E 014°40'610.9
2017-Dec-07 13:29N 35°53' E 014°46'1 0.5
2017-Dec-07 12:04N 35°52' E 014°46'0 0.0
2017-Dec-07 11:55N 35°52' E 014°46'0 0.0
2017-Dec-07 11:13N 35°52' E 014°46'0 0.0
2017-Dec-07 10:13N 35°52' E 014°46'0 0.0
2017-Dec-07 09:55N 35°52' E 014°46'0 0.0
2017-Dec-07 09:22N 35°52' E 014°46'0 0.0
2017-Dec-07 08:49N 35°52' E 014°46'0 0.0
2017-Dec-07 08:19N 35°52' E 014°46'0 0.0
2017-Dec-07 07:43N 35°52' E 014°46'0 0.0
2017-Dec-07 07:25N 35°52' E 014°46'0 0.0
2017-Dec-07 06:37N 35°52' E 014°46'0 0.0
2017-Dec-07 06:19N 35°52' E 014°46'0 0.0
2017-Dec-07 05:55N 35°52' E 014°46'0 0.0
2017-Dec-07 05:28N 35°52' E 014°46'0 0.0
2017-Dec-07 04:58N 35°52' E 014°46'0 0.0
2017-Dec-07 04:19N 35°52' E 014°46'0 0.0
2017-Dec-07 03:50N 35°52' E 014°46'0 0.0
2017-Dec-07 03:28N 35°52' E 014°46'0 0.0
2017-Dec-07 02:55N 35°52' E 014°46'0 0.1
2017-Dec-07 02:28N 35°52' E 014°46'0 0.3
2017-Dec-07 02:00N 35°52' E 014°46'1 2.6
2017-Dec-07 01:30N 35°51' E 014°48'4 8.8
2017-Dec-07 01:00N 35°50' E 014°53'  

Dump ship's entire track history